Time;durP1;ratioP1;P1;durP2;ratioP2;P2;SDS_P1;SDS_P2;PMS_P1;PMS_P2;Temp;Humidity;BMP_temperature;BMP_pressure;BME280_temperature;BME280_humidity;BME280_pressure;Samples;Min_cycle;Max_cycle;Signal;HPM_P1;HPM_P2
2023/11/26 00:00:21;;;;;;;2.57;1.40;;;0.90;99.90;;;;;;4870683;29;20039;-79
2023/11/26 00:02:47;;;;;;;1.67;1.33;;;0.90;99.90;;;;;;4871898;29;20044;-79
2023/11/26 00:05:13;;;;;;;2.00;1.40;;;0.90;99.90;;;;;;4870166;29;20261;-80
2023/11/26 00:07:38;;;;;;;1.90;1.57;;;0.90;99.90;;;;;;4869605;29;20036;-79
2023/11/26 00:10:04;;;;;;;2.80;1.50;;;0.90;99.90;;;;;;4869542;29;20148;-79
2023/11/26 00:12:29;;;;;;;1.80;1.40;;;0.90;99.90;;;;;;4870363;29;20036;-79
2023/11/26 00:14:55;;;;;;;2.47;2.00;;;0.90;99.90;;;;;;4870622;29;20033;-80
2023/11/26 00:17:21;;;;;;;3.03;2.30;;;0.90;99.90;;;;;;4871296;29;20319;-80
2023/11/26 00:19:47;;;;;;;4.20;2.27;;;0.90;99.90;;;;;;4871081;29;20109;-80
2023/11/26 00:22:12;;;;;;;4.43;2.67;;;0.90;99.90;;;;;;4872103;29;20040;-80
2023/11/26 00:24:38;;;;;;;5.40;3.13;;;0.90;99.90;;;;;;4871862;29;20036;-80
2023/11/26 00:27:03;;;;;;;4.70;2.77;;;0.90;99.90;;;;;;4871277;29;20085;-80
2023/11/26 00:29:29;;;;;;;4.20;3.33;;;0.90;99.90;;;;;;4871784;29;20128;-80
2023/11/26 00:31:55;;;;;;;3.93;3.10;;;0.90;99.90;;;;;;4871871;29;20036;-80
2023/11/26 00:34:21;;;;;;;3.77;3.10;;;0.90;99.90;;;;;;4871970;29;20148;-80
2023/11/26 00:36:47;;;;;;;5.47;3.67;;;0.90;99.90;;;;;;4871040;29;20025;-80
2023/11/26 00:39:12;;;;;;;5.17;3.83;;;0.90;99.90;;;;;;4872613;29;20033;-80
2023/11/26 00:41:38;;;;;;;5.43;3.63;;;0.90;99.90;;;;;;4871256;29;20033;-80
2023/11/26 00:44:04;;;;;;;5.43;4.13;;;0.90;99.90;;;;;;4871801;29;20051;-80
2023/11/26 00:46:29;;;;;;;6.43;3.70;;;0.90;99.90;;;;;;4870951;29;20041;-80
2023/11/26 00:48:55;;;;;;;5.27;3.87;;;0.90;99.90;;;;;;4870870;29;20036;-80
2023/11/26 00:51:21;;;;;;;4.67;3.53;;;0.80;99.90;;;;;;4871577;29;20080;-79
2023/11/26 00:53:50;;;;;;;7.93;4.07;;;0.90;99.90;;;;;;4872417;29;20099;-80
2023/11/26 00:56:16;;;;;;;5.43;3.83;;;0.90;99.90;;;;;;4871616;29;20037;-80
2023/11/26 00:58:41;;;;;;;5.20;4.63;;;0.90;99.90;;;;;;4871762;29;20037;-79
2023/11/26 01:01:07;;;;;;;5.63;4.17;;;0.90;99.90;;;;;;4871347;29;20112;-79
2023/11/26 01:03:32;;;;;;;7.53;4.30;;;0.90;99.90;;;;;;4872433;29;21068;-79
2023/11/26 01:05:58;;;;;;;6.67;4.47;;;0.90;99.90;;;;;;4872368;29;21303;-80
2023/11/26 01:08:24;;;;;;;6.00;4.50;;;0.90;99.90;;;;;;4877199;29;20029;-80
2023/11/26 01:10:51;;;;;;;8.53;4.27;;;0.90;99.90;;;;;;4876826;29;20128;-80
2023/11/26 01:13:16;;;;;;;6.83;4.17;;;0.80;99.90;;;;;;4876114;29;20033;-79
2023/11/26 01:15:42;;;;;;;7.93;4.80;;;0.80;99.90;;;;;;4875581;29;20760;-80
2023/11/26 01:18:08;;;;;;;10.33;5.27;;;0.80;99.90;;;;;;4876016;29;20041;-80
2023/11/26 01:20:33;;;;;;;9.00;4.80;;;0.80;99.90;;;;;;4876322;29;20055;-79
2023/11/26 01:22:59;;;;;;;13.10;5.17;;;0.80;99.90;;;;;;4876765;29;20037;-80
2023/11/26 01:25:24;;;;;;;11.90;5.27;;;0.80;99.90;;;;;;4875203;29;20166;-80
2023/11/26 01:27:50;;;;;;;15.57;5.10;;;0.80;99.90;;;;;;4876433;29;20084;-79
2023/11/26 01:30:16;;;;;;;11.87;4.13;;;0.80;99.90;;;;;;4876078;29;20037;-80
2023/11/26 01:32:42;;;;;;;8.90;3.73;;;0.70;99.90;;;;;;4875433;29;20036;-80
2023/11/26 01:35:08;;;;;;;12.27;4.87;;;0.70;99.90;;;;;;4874375;29;20040;-80
2023/11/26 01:37:34;;;;;;;10.40;3.90;;;0.70;99.90;;;;;;4875307;29;20040;-80
2023/11/26 01:39:59;;;;;;;5.03;3.10;;;0.70;99.90;;;;;;4875822;29;20033;-80
2023/11/26 01:42:25;;;;;;;5.80;2.93;;;0.70;99.90;;;;;;4875145;29;20052;-80
2023/11/26 01:44:51;;;;;;;5.63;3.30;;;0.70;99.90;;;;;;4874119;29;20305;-79
2023/11/26 01:47:17;;;;;;;4.83;3.37;;;0.70;99.90;;;;;;4874188;29;20089;-79
2023/11/26 01:49:43;;;;;;;5.40;3.67;;;0.70;99.90;;;;;;4873659;29;20037;-80
2023/11/26 01:52:12;;;;;;;6.50;4.00;;;0.70;99.90;;;;;;4875587;29;20054;-80
2023/11/26 01:54:41;;;;;;;5.67;3.80;;;0.80;99.90;;;;;;4874875;29;20043;-80
2023/11/26 01:57:08;;;;;;;7.20;5.00;;;0.80;99.90;;;;;;4873745;29;20116;-80
2023/11/26 01:59:34;;;;;;;5.67;4.27;;;0.80;99.90;;;;;;4875694;29;20088;-79
2023/11/26 02:02:00;;;;;;;8.10;4.27;;;0.80;99.90;;;;;;4873909;29;20120;-80
2023/11/26 02:04:25;;;;;;;4.70;3.77;;;0.80;99.90;;;;;;4874434;29;20835;-79
2023/11/26 02:06:54;;;;;;;5.40;3.53;;;0.80;99.90;;;;;;4873270;29;20044;-79
2023/11/26 02:09:20;;;;;;;4.63;3.33;;;0.80;99.90;;;;;;4872842;29;20062;-79
2023/11/26 02:11:46;;;;;;;7.77;3.77;;;0.80;99.90;;;;;;4873084;29;20028;-80
2023/11/26 02:14:12;;;;;;;5.83;3.40;;;0.80;99.90;;;;;;4873118;29;20029;-80
2023/11/26 02:16:38;;;;;;;4.90;2.83;;;0.70;99.90;;;;;;4872944;29;20097;-79
2023/11/26 02:19:14;;;;;;;4.83;2.97;;;0.70;99.90;;;;;;4877127;29;20032;-79
2023/11/26 02:21:39;;;;;;;5.37;2.60;;;0.70;99.90;;;;;;4895644;29;20025;-78
2023/11/26 02:24:08;;;;;;;4.73;2.60;;;0.80;99.90;;;;;;4893966;29;20041;-78
2023/11/26 02:26:34;;;;;;;7.37;3.70;;;0.70;99.90;;;;;;4893936;29;20037;-78
2023/11/26 02:28:59;;;;;;;4.87;2.47;;;0.70;99.90;;;;;;4880540;29;20033;-80
2023/11/26 02:31:25;;;;;;;5.37;3.63;;;0.70;99.90;;;;;;4870446;29;20037;-79
2023/11/26 02:33:50;;;;;;;4.70;3.17;;;0.70;99.90;;;;;;4870804;29;20155;-79
2023/11/26 02:36:16;;;;;;;3.00;2.37;;;0.60;99.90;;;;;;4870904;29;20504;-80
2023/11/26 02:38:42;;;;;;;6.70;3.40;;;0.60;99.90;;;;;;4871651;29;20041;-79
2023/11/26 02:41:09;;;;;;;5.93;3.13;;;0.60;99.90;;;;;;4873101;29;20029;-79
2023/11/26 02:43:35;;;;;;;4.47;3.13;;;0.60;99.90;;;;;;4871683;29;20283;-80
2023/11/26 02:46:01;;;;;;;8.13;3.23;;;0.60;99.90;;;;;;4873375;29;20504;-80
2023/11/26 02:48:26;;;;;;;7.03;3.07;;;0.50;99.90;;;;;;4873011;29;20029;-80
2023/11/26 02:50:52;;;;;;;12.70;4.47;;;0.50;99.90;;;;;;4873052;29;20128;-80
2023/11/26 02:53:19;;;;;;;6.20;3.57;;;0.50;99.90;;;;;;4873345;29;20029;-81
2023/11/26 02:55:46;;;;;;;5.60;3.60;;;0.50;99.90;;;;;;4872375;29;20033;-80
2023/11/26 02:58:13;;;;;;;5.57;3.70;;;0.50;99.90;;;;;;4873325;29;20424;-80
2023/11/26 03:00:42;;;;;;;7.63;3.63;;;0.50;99.90;;;;;;4871598;29;20523;-80
2023/11/26 03:03:08;;;;;;;5.83;4.13;;;0.40;99.90;;;;;;4871485;29;20041;-80
2023/11/26 03:05:34;;;;;;;7.80;4.00;;;0.40;99.90;;;;;;4871717;29;20119;-80
2023/11/26 03:08:08;;;;;;;7.47;5.10;;;0.40;99.90;;;;;;4871308;29;20602;-80
2023/11/26 03:13:22;;;;;;;7.53;5.05;;;0.40;99.90;;;;;;4871714;29;20043;-79
2023/11/26 03:15:52;;;;;;;8.10;5.37;;;0.40;99.90;;;;;;4870843;29;20124;-80
2023/11/26 03:18:17;;;;;;;8.20;4.50;;;0.30;99.90;;;;;;4871919;29;20044;-80
2023/11/26 03:20:44;;;;;;;7.20;4.80;;;0.30;99.90;;;;;;4871706;29;20968;-80
2023/11/26 03:23:11;;;;;;;7.17;4.93;;;0.30;99.90;;;;;;4871117;29;20056;-80
2023/11/26 03:25:37;;;;;;;8.50;5.07;;;0.30;99.90;;;;;;4870806;29;20021;-80
2023/11/26 03:28:07;;;;;;;7.60;4.73;;;0.20;99.90;;;;;;4871402;29;20045;-79
2023/11/26 03:30:34;;;;;;;8.83;4.80;;;0.20;99.90;;;;;;4870228;29;20144;-79
2023/11/26 03:32:59;;;;;;;7.57;4.50;;;0.20;99.90;;;;;;4871235;29;20033;-80
2023/11/26 03:35:26;;;;;;;6.83;4.47;;;0.20;99.90;;;;;;4869976;29;20873;-80
2023/11/26 03:37:53;;;;;;;6.47;4.33;;;0.20;99.90;;;;;;4870879;29;20033;-80
2023/11/26 03:40:20;;;;;;;7.53;3.77;;;0.20;99.90;;;;;;4870450;29;20033;-80
2023/11/26 03:42:47;;;;;;;7.77;4.03;;;0.20;99.90;;;;;;4869914;29;20033;-80
2023/11/26 03:45:12;;;;;;;7.93;4.30;;;0.20;99.90;;;;;;4870700;29;20441;-79
2023/11/26 03:47:39;;;;;;;7.37;4.23;;;0.20;99.90;;;;;;4869767;29;20021;-80
2023/11/26 03:50:09;;;;;;;5.27;3.90;;;0.20;99.90;;;;;;4870983;29;20029;-80
2023/11/26 03:52:35;;;;;;;7.20;3.70;;;0.30;99.90;;;;;;4869731;29;20036;-81
2023/11/26 03:55:01;;;;;;;4.77;3.00;;;0.30;99.90;;;;;;4869957;29;20029;-79
2023/11/26 03:57:27;;;;;;;4.87;2.97;;;0.30;99.90;;;;;;4870102;29;20037;-80
2023/11/26 03:59:52;;;;;;;4.70;2.70;;;0.30;99.90;;;;;;4870811;29;20057;-80
2023/11/26 04:02:18;;;;;;;6.73;2.50;;;0.30;99.90;;;;;;4869788;29;20505;-79
2023/11/26 04:04:45;;;;;;;5.00;2.30;;;0.30;99.90;;;;;;4870606;29;20034;-80
2023/11/26 04:07:11;;;;;;;3.93;2.53;;;0.40;99.90;;;;;;4869424;29;20056;-80
2023/11/26 04:09:37;;;;;;;6.30;2.60;;;0.40;99.90;;;;;;4870309;29;20029;-80
2023/11/26 04:12:03;;;;;;;5.03;2.40;;;0.40;99.90;;;;;;4869172;29;20040;-80
2023/11/26 04:14:31;;;;;;;3.57;2.20;;;0.40;99.90;;;;;;4870435;29;20029;-80
2023/11/26 04:16:57;;;;;;;4.30;2.23;;;0.40;99.90;;;;;;4870583;29;20091;-81
2023/11/26 04:19:22;;;;;;;3.87;2.20;;;0.40;99.90;;;;;;4869949;29;20505;-80
2023/11/26 04:21:48;;;;;;;8.47;2.80;;;0.40;99.90;;;;;;4872206;29;21281;-80
2023/11/26 04:24:15;;;;;;;3.43;2.40;;;0.40;99.90;;;;;;4869852;29;20056;-80
2023/11/26 04:26:41;;;;;;;4.27;2.20;;;0.50;99.90;;;;;;4869334;29;20041;-80
2023/11/26 04:29:07;;;;;;;2.50;1.70;;;0.50;99.90;;;;;;4871019;29;20037;-80
2023/11/26 04:31:33;;;;;;;5.33;2.07;;;0.50;99.90;;;;;;4871459;29;20033;-80
2023/11/26 04:34:01;;;;;;;3.50;1.80;;;0.40;99.90;;;;;;4870889;29;20477;-80
2023/11/26 04:36:27;;;;;;;5.63;2.40;;;0.40;99.90;;;;;;4871719;29;20089;-80
2023/11/26 04:38:53;;;;;;;4.10;2.17;;;0.40;99.90;;;;;;4871653;29;20108;-80
2023/11/26 04:41:20;;;;;;;5.40;2.10;;;0.30;99.90;;;;;;4873378;29;20584;-80
2023/11/26 04:43:45;;;;;;;4.30;2.17;;;0.30;99.90;;;;;;4874995;29;20041;-80
2023/11/26 04:46:13;;;;;;;5.30;2.10;;;0.30;99.90;;;;;;4874900;29;20121;-80
2023/11/26 04:48:39;;;;;;;5.73;2.33;;;0.30;99.90;;;;;;4873948;29;20594;-80
2023/11/26 04:51:06;;;;;;;4.83;2.20;;;0.30;99.90;;;;;;4874762;29;20041;-80
2023/11/26 04:53:32;;;;;;;7.57;2.47;;;0.20;99.90;;;;;;4874035;29;20025;-80
2023/11/26 04:55:58;;;;;;;6.40;2.27;;;0.20;99.90;;;;;;4874551;29;20041;-80
2023/11/26 04:58:24;;;;;;;4.57;3.07;;;0.20;99.90;;;;;;4876153;29;20093;-80
2023/11/26 05:00:51;;;;;;;4.63;2.07;;;0.20;99.90;;;;;;4874714;29;20040;-80
2023/11/26 05:03:17;;;;;;;4.93;2.20;;;0.30;99.90;;;;;;4873939;29;20041;-80
2023/11/26 05:05:43;;;;;;;4.13;1.90;;;0.20;99.90;;;;;;4873078;29;20045;-80
2023/11/26 05:08:09;;;;;;;5.47;2.10;;;0.20;99.90;;;;;;4873816;29;20041;-80
2023/11/26 05:10:36;;;;;;;5.17;2.20;;;0.20;99.90;;;;;;4873949;29;20037;-80
2023/11/26 05:13:02;;;;;;;5.80;3.00;;;0.20;99.90;;;;;;4873873;29;20849;-80
2023/11/26 05:15:28;;;;;;;5.53;3.20;;;0.10;99.90;;;;;;4875281;29;20025;-80
2023/11/26 05:17:55;;;;;;;3.97;2.63;;;0.10;99.90;;;;;;4874305;29;20044;-80
2023/11/26 05:20:22;;;;;;;5.57;2.50;;;0.10;99.90;;;;;;4873865;29;20037;-80
2023/11/26 05:22:47;;;;;;;6.27;2.97;;;0.10;99.90;;;;;;4889566;29;20044;-80
2023/11/26 05:25:14;;;;;;;4.53;2.40;;;0.10;99.90;;;;;;4895937;29;20132;-80
2023/11/26 05:27:40;;;;;;;8.13;2.80;;;0.00;99.90;;;;;;4889227;29;20041;-80
2023/11/26 05:30:07;;;;;;;4.37;2.70;;;0.00;99.90;;;;;;4874106;29;20140;-79
2023/11/26 05:32:32;;;;;;;4.23;2.57;;;0.00;99.90;;;;;;4873720;29;20029;-80
2023/11/26 05:34:58;;;;;;;6.30;2.90;;;-0.10;99.90;;;;;;4872860;29;20037;-80
2023/11/26 05:37:24;;;;;;;4.70;2.97;;;-0.10;99.90;;;;;;4871827;29;20114;-80
2023/11/26 05:39:49;;;;;;;8.33;3.60;;;-0.10;99.90;;;;;;4871696;29;20108;-80
2023/11/26 05:42:15;;;;;;;5.93;3.30;;;-0.20;99.90;;;;;;4871964;29;20734;-80
2023/11/26 05:44:40;;;;;;;6.43;3.40;;;-0.20;99.90;;;;;;4870682;29;20522;-80
2023/11/26 05:47:06;;;;;;;4.67;3.47;;;-0.20;99.90;;;;;;4871000;29;21045;-80
2023/11/26 05:49:31;;;;;;;5.33;3.50;;;-0.30;99.90;;;;;;4870805;29;20032;-80
2023/11/26 05:51:57;;;;;;;5.97;3.60;;;-0.30;99.90;;;;;;4872940;29;20032;-80
2023/11/26 05:54:23;;;;;;;6.77;3.30;;;-0.40;99.90;;;;;;4870049;29;21019;-80
2023/11/26 05:56:50;;;;;;;4.93;3.47;;;-0.40;99.90;;;;;;4869395;29;20036;-79
2023/11/26 05:59:16;;;;;;;9.33;3.37;;;-0.40;99.90;;;;;;4870581;29;20079;-80
2023/11/26 06:01:41;;;;;;;4.87;3.57;;;-0.40;99.90;;;;;;4869520;29;20566;-80
2023/11/26 06:04:07;;;;;;;6.00;3.60;;;-0.40;99.90;;;;;;4870130;29;20033;-79
2023/11/26 06:06:33;;;;;;;7.40;3.57;;;-0.30;99.90;;;;;;4869515;29;20032;-80
2023/11/26 06:08:59;;;;;;;6.20;4.37;;;-0.40;99.90;;;;;;4869443;29;20342;-80
2023/11/26 06:11:24;;;;;;;5.20;3.40;;;-0.30;99.90;;;;;;4869821;29;20044;-79
2023/11/26 06:13:50;;;;;;;5.83;3.23;;;-0.30;99.90;;;;;;4869343;29;20485;-80
2023/11/26 06:16:16;;;;;;;4.63;2.80;;;-0.30;99.90;;;;;;4868675;29;20037;-80
2023/11/26 06:18:42;;;;;;;9.57;3.70;;;-0.30;99.90;;;;;;4867469;29;20036;-79
2023/11/26 06:21:07;;;;;;;6.60;3.60;;;-0.30;99.90;;;;;;4867647;29;20033;-80
2023/11/26 06:23:33;;;;;;;5.77;3.23;;;-0.20;99.90;;;;;;4868583;29;20028;-80
2023/11/26 06:25:59;;;;;;;7.13;3.53;;;-0.20;99.90;;;;;;4868194;29;20029;-80
2023/11/26 06:28:25;;;;;;;5.77;3.30;;;-0.20;99.90;;;;;;4868330;29;20059;-80
2023/11/26 06:30:51;;;;;;;7.33;3.33;;;-0.20;99.90;;;;;;4868007;29;20045;-79
2023/11/26 06:33:16;;;;;;;5.80;3.40;;;-0.10;99.90;;;;;;4868521;29;20492;-79
2023/11/26 06:35:43;;;;;;;7.23;3.57;;;-0.10;99.90;;;;;;4867480;29;20591;-79
2023/11/26 06:38:09;;;;;;;6.63;3.30;;;-0.10;99.90;;;;;;4867527;29;20507;-80
2023/11/26 06:40:36;;;;;;;7.03;3.17;;;-0.10;99.90;;;;;;4868340;29;20033;-79
2023/11/26 06:43:02;;;;;;;5.90;3.50;;;-0.10;99.90;;;;;;4870982;29;21538;-79
2023/11/26 06:45:27;;;;;;;6.23;3.80;;;-0.20;99.90;;;;;;4870414;29;20156;-79
2023/11/26 06:47:53;;;;;;;8.37;3.70;;;-0.20;99.90;;;;;;4871903;29;20041;-79
2023/11/26 06:50:19;;;;;;;7.03;4.03;;;-0.20;99.90;;;;;;4869964;29;20124;-79
2023/11/26 06:52:44;;;;;;;9.67;4.00;;;-0.20;99.90;;;;;;4870202;29;20120;-79
2023/11/26 06:55:10;;;;;;;7.90;3.57;;;-0.20;99.90;;;;;;4870236;29;20029;-79
2023/11/26 06:57:36;;;;;;;8.87;3.83;;;-0.20;99.90;;;;;;4870318;29;20184;-80
2023/11/26 07:00:03;;;;;;;8.63;3.37;;;-0.20;99.90;;;;;;4868926;29;20033;-80
2023/11/26 07:02:29;;;;;;;6.87;3.90;;;-0.20;99.90;;;;;;4867821;29;20121;-80
2023/11/26 07:04:55;;;;;;;6.43;3.40;;;-0.20;99.90;;;;;;4867821;29;20041;-80
2023/11/26 07:07:21;;;;;;;6.27;3.43;;;-0.10;99.90;;;;;;4865024;29;20045;-80
2023/11/26 07:09:47;;;;;;;7.13;3.37;;;-0.10;99.90;;;;;;4866756;29;20084;-79
2023/11/26 07:12:13;;;;;;;5.23;3.40;;;-0.10;99.90;;;;;;4867846;29;20033;-79
2023/11/26 07:14:38;;;;;;;9.17;3.40;;;-0.10;99.90;;;;;;4865541;29;20468;-79
2023/11/26 07:17:05;;;;;;;6.97;3.50;;;-0.10;99.90;;;;;;4865684;29;20678;-79
2023/11/26 07:19:30;;;;;;;11.87;4.10;;;-0.10;99.90;;;;;;4865130;29;20057;-79
2023/11/26 07:21:56;;;;;;;5.50;3.47;;;-0.10;99.90;;;;;;4866936;29;20208;-79
2023/11/26 07:24:22;;;;;;;8.77;3.97;;;-0.10;99.90;;;;;;4867808;29;20064;-79
2023/11/26 07:26:48;;;;;;;7.10;3.70;;;-0.10;99.90;;;;;;4864373;29;20029;-78
2023/11/26 07:29:14;;;;;;;12.57;4.23;;;-0.10;99.90;;;;;;4866547;29;20408;-79
2023/11/26 07:31:39;;;;;;;9.77;3.97;;;-0.10;99.90;;;;;;4866734;29;20033;-77
2023/11/26 07:34:05;;;;;;;8.30;4.20;;;0.00;99.90;;;;;;4866833;29;20036;-88
2023/11/26 07:36:32;;;;;;;6.07;3.90;;;0.00;99.90;;;;;;4868396;29;20124;-80
2023/11/26 07:38:58;;;;;;;6.70;4.27;;;0.10;99.90;;;;;;4866273;29;20075;-80
2023/11/26 07:41:24;;;;;;;6.30;3.77;;;0.10;99.90;;;;;;4867390;29;20025;-80
2023/11/26 07:43:51;;;;;;;8.33;4.27;;;0.10;99.90;;;;;;4866626;29;20041;-79
2023/11/26 07:46:18;;;;;;;8.73;4.60;;;0.10;99.90;;;;;;4867706;29;20032;-79
2023/11/26 07:48:45;;;;;;;7.60;3.90;;;0.10;99.90;;;;;;4868770;29;20140;-80
2023/11/26 07:51:11;;;;;;;8.10;3.87;;;0.10;99.90;;;;;;4868663;29;21465;-79
2023/11/26 07:53:38;;;;;;;7.73;3.77;;;0.20;99.90;;;;;;4865215;29;20055;-80
2023/11/26 07:56:04;;;;;;;8.07;4.70;;;0.20;99.90;;;;;;4863427;29;20500;-81
2023/11/26 07:58:33;;;;;;;7.07;3.83;;;0.30;99.90;;;;;;4866546;29;20148;-80
2023/11/26 08:01:03;;;;;;;9.23;4.43;;;0.30;99.90;;;;;;4866904;29;20036;-80
2023/11/26 08:03:32;;;;;;;9.10;3.93;;;0.30;99.90;;;;;;4867779;29;20088;-81
2023/11/26 08:06:02;;;;;;;7.47;4.37;;;0.40;99.90;;;;;;4862024;29;21331;-80
2023/11/26 08:08:35;;;;;;;8.70;4.40;;;0.50;99.90;;;;;;4864605;29;20462;-73
2023/11/26 08:11:01;;;;;;;7.40;3.80;;;0.60;99.90;;;;;;4864265;29;20119;-85
2023/11/26 08:13:28;;;;;;;13.17;4.63;;;0.60;99.90;;;;;;4861994;29;20255;-88
2023/11/26 08:15:56;;;;;;;8.80;4.43;;;0.70;99.90;;;;;;4859187;29;20044;-87
2023/11/26 08:18:24;;;;;;;7.90;3.90;;;0.70;99.90;;;;;;4870400;29;20061;-86
2023/11/26 08:20:50;;;;;;;7.40;4.07;;;0.70;99.90;;;;;;4868144;29;20044;-83
2023/11/26 08:23:15;;;;;;;6.63;3.83;;;0.80;99.90;;;;;;4875658;29;20029;-85
2023/11/26 08:25:44;;;;;;;6.37;4.10;;;0.80;99.90;;;;;;4890765;29;20032;-84
2023/11/26 08:28:11;;;;;;;8.80;3.83;;;0.80;99.90;;;;;;4899933;29;20097;-83
2023/11/26 08:30:42;;;;;;;7.40;3.50;;;0.90;99.90;;;;;;4884133;29;20133;-82
2023/11/26 08:33:10;;;;;;;5.40;3.37;;;0.90;99.90;;;;;;4875659;29;20029;-83
2023/11/26 08:35:37;;;;;;;9.07;3.40;;;0.90;99.90;;;;;;4873822;29;20029;-83
2023/11/26 08:38:05;;;;;;;9.90;4.77;;;0.90;99.90;;;;;;4874645;29;21816;-83
2023/11/26 08:40:34;;;;;;;7.80;4.00;;;1.00;99.90;;;;;;4874184;29;20127;-83
2023/11/26 08:43:04;;;;;;;11.73;4.40;;;0.90;99.90;;;;;;4874894;29;20056;-83
2023/11/26 08:45:30;;;;;;;8.90;4.43;;;1.00;99.90;;;;;;4872333;29;20033;-83
2023/11/26 08:47:56;;;;;;;6.37;4.20;;;1.00;99.90;;;;;;4874731;29;20045;-83
2023/11/26 08:50:23;;;;;;;7.37;3.83;;;1.10;99.90;;;;;;4876358;29;20117;-83
2023/11/26 08:52:52;;;;;;;9.73;4.37;;;1.20;99.90;;;;;;4874609;29;20104;-84
2023/11/26 08:55:18;;;;;;;10.37;4.10;;;1.40;99.90;;;;;;4876678;29;20071;-83
2023/11/26 08:57:44;;;;;;;6.83;3.30;;;1.50;99.90;;;;;;4876575;29;20065;-83
2023/11/26 09:00:10;;;;;;;4.40;2.87;;;1.60;99.90;;;;;;4876584;29;20032;-83
2023/11/26 09:02:38;;;;;;;5.33;3.30;;;1.80;99.90;;;;;;4877806;29;20604;-84
2023/11/26 09:05:08;;;;;;;7.23;3.43;;;1.80;99.90;;;;;;4876781;29;20029;-83
2023/11/26 09:07:40;;;;;;;5.30;3.53;;;1.80;99.90;;;;;;4876190;29;21457;-82
2023/11/26 09:10:06;;;;;;;7.67;3.67;;;1.90;99.90;;;;;;4877199;29;20046;-82
2023/11/26 09:12:32;;;;;;;7.43;3.03;;;2.00;99.90;;;;;;4876724;29;20143;-82
2023/11/26 09:14:57;;;;;;;9.33;3.37;;;2.10;99.90;;;;;;4875624;29;20081;-82
2023/11/26 09:17:23;;;;;;;6.40;3.80;;;2.20;99.90;;;;;;4879192;29;20503;-82
2023/11/26 09:19:49;;;;;;;9.10;4.07;;;2.10;99.90;;;;;;4879121;29;20065;-81
2023/11/26 09:22:15;;;;;;;7.93;3.70;;;2.10;99.90;;;;;;4878075;29;20060;-82
2023/11/26 09:24:40;;;;;;;7.90;4.20;;;2.10;99.90;;;;;;4872897;29;20041;-82
2023/11/26 09:27:06;;;;;;;6.93;3.80;;;2.10;99.90;;;;;;4874084;29;20041;-81
2023/11/26 09:29:31;;;;;;;11.43;4.00;;;2.20;99.90;;;;;;4873894;29;20108;-81
2023/11/26 09:31:57;;;;;;;7.67;3.27;;;2.10;99.90;;;;;;4873871;29;20111;-81
2023/11/26 09:34:24;;;;;;;5.13;3.27;;;2.10;99.90;;;;;;4874823;29;20041;-81
2023/11/26 09:36:52;;;;;;;7.73;3.40;;;2.10;99.90;;;;;;4870722;29;20084;-82
2023/11/26 09:39:18;;;;;;;6.50;3.77;;;2.10;99.90;;;;;;4872905;29;20408;-81
2023/11/26 09:41:43;;;;;;;7.77;3.57;;;2.00;99.90;;;;;;4872756;29;20033;-81
2023/11/26 09:44:09;;;;;;;6.47;3.60;;;1.90;99.90;;;;;;4877976;29;20112;-81
2023/11/26 09:46:35;;;;;;;6.97;3.70;;;1.90;99.90;;;;;;4877128;29;20448;-81
2023/11/26 09:49:02;;;;;;;6.17;3.40;;;1.80;99.90;;;;;;4872952;29;20033;-81
2023/11/26 09:51:30;;;;;;;7.77;4.17;;;1.80;99.90;;;;;;4878999;29;20145;-80
2023/11/26 09:53:55;;;;;;;8.93;4.00;;;1.80;99.90;;;;;;4879123;29;20965;-80
2023/11/26 09:56:21;;;;;;;8.23;4.13;;;1.70;99.90;;;;;;4878989;29;20049;-80
2023/11/26 09:58:47;;;;;;;7.63;4.07;;;1.70;99.90;;;;;;4878181;29;20036;-81
2023/11/26 10:01:12;;;;;;;8.20;3.60;;;1.70;99.90;;;;;;4879451;29;20068;-81
2023/11/26 10:04:01;;;;;;;8.83;3.80;;;1.60;99.90;;;;;;4877447;29;20781;-83
2023/11/26 10:06:27;;;;;;;7.30;3.40;;;1.60;99.90;;;;;;4869862;29;20123;-79
2023/11/26 10:08:53;;;;;;;6.97;3.73;;;1.60;99.90;;;;;;4873536;29;20121;-78
2023/11/26 10:11:21;;;;;;;6.00;3.77;;;1.60;99.90;;;;;;4876349;29;20056;-78
2023/11/26 10:13:48;;;;;;;7.07;3.50;;;1.60;99.90;;;;;;4875839;29;20097;-78
2023/11/26 10:16:27;;;;;;;5.33;3.40;;;1.70;99.90;;;;;;4877733;29;20029;-79
2023/11/26 10:18:53;;;;;;;7.97;3.53;;;1.70;99.90;;;;;;4876884;29;20029;-78
2023/11/26 10:21:18;;;;;;;7.80;3.67;;;1.80;99.90;;;;;;4872955;29;20049;-79
2023/11/26 10:23:44;;;;;;;8.90;3.33;;;1.90;99.90;;;;;;4871455;29;20055;-79
2023/11/26 10:26:26;;;;;;;7.73;3.40;;;2.10;99.90;;;;;;4869188;29;20025;-79
2023/11/26 10:28:58;;;;;;;6.10;2.87;;;2.20;99.90;;;;;;4868107;29;21027;-79
2023/11/26 10:31:24;;;;;;;8.33;3.10;;;2.30;99.90;;;;;;4869577;29;20040;-77
2023/11/26 10:33:49;;;;;;;7.87;3.20;;;2.40;99.90;;;;;;4870222;29;20025;-79
2023/11/26 10:36:30;;;;;;;8.40;4.13;;;2.40;99.90;;;;;;4868143;29;20058;-79
2023/11/26 10:38:55;;;;;;;5.87;3.23;;;2.50;99.90;;;;;;4868161;29;20111;-79
2023/11/26 10:41:23;;;;;;;9.07;3.67;;;2.50;99.90;;;;;;4870684;29;20521;-78
2023/11/26 10:43:51;;;;;;;7.03;2.67;;;2.40;99.90;;;;;;4868739;29;20036;-79
2023/11/26 10:46:17;;;;;;;5.03;2.40;;;2.50;99.90;;;;;;4866825;29;20039;-79
2023/11/26 10:48:48;;;;;;;6.53;2.47;;;2.40;99.90;;;;;;4867283;29;20033;-79
2023/11/26 10:51:24;;;;;;;7.70;3.07;;;2.40;99.90;;;;;;4867328;29;20089;-79
2023/11/26 10:54:00;;;;;;;4.67;2.67;;;2.30;99.90;;;;;;4868734;29;20133;-80
2023/11/26 10:56:39;;;;;;;6.30;3.17;;;2.30;99.90;;;;;;4871473;29;20066;-79
2023/11/26 10:59:14;;;;;;;4.53;2.77;;;2.30;99.90;;;;;;4873422;29;20037;-79
2023/11/26 11:01:42;;;;;;;7.70;3.00;;;2.20;99.90;;;;;;4872691;29;20051;-79
2023/11/26 11:04:13;;;;;;;7.67;2.90;;;2.20;99.90;;;;;;4872887;29;20045;-79
2023/11/26 11:06:39;;;;;;;8.03;3.50;;;2.10;99.90;;;;;;4874170;29;20041;-78
2023/11/26 11:09:05;;;;;;;6.70;3.47;;;2.10;99.90;;;;;;4873406;29;20033;-78
2023/11/26 11:11:59;;;;;;;8.03;4.80;;;2.10;99.90;;;;;;4873597;29;20044;-78
2023/11/26 11:14:26;;;;;;;8.40;4.40;;;2.10;99.90;;;;;;4871451;29;20058;-79
2023/11/26 11:16:51;;;;;;;9.37;5.07;;;2.10;99.90;;;;;;4873720;29;20125;-79
2023/11/26 11:19:55;;;;;;;7.33;3.90;;;2.10;99.90;;;;;;4874061;29;20037;-79
2023/11/26 11:22:42;;;;;;;8.30;3.90;;;2.20;99.90;;;;;;4875639;29;20155;-78
2023/11/26 11:25:09;;;;;;;9.23;3.87;;;2.30;99.90;;;;;;4886918;29;20024;-78
2023/11/26 11:27:58;;;;;;;8.03;4.27;;;2.30;99.90;;;;;;4892554;29;20809;-77
2023/11/26 11:30:39;;;;;;;5.87;3.40;;;2.40;99.90;;;;;;4887715;29;20049;-79
2023/11/26 11:33:09;;;;;;;6.10;3.43;;;2.40;99.90;;;;;;4872496;29;20087;-79
2023/11/26 11:35:41;;;;;;;6.67;3.67;;;2.40;99.90;;;;;;4872563;29;20528;-79
2023/11/26 11:38:10;;;;;;;7.13;3.30;;;2.40;99.90;;;;;;4871543;29;20036;-79
2023/11/26 11:40:57;;;;;;;5.90;3.10;;;2.50;99.90;;;;;;4872152;29;20084;-78
2023/11/26 11:43:23;;;;;;;4.90;3.20;;;2.60;99.90;;;;;;4871253;29;20033;-79
2023/11/26 11:45:49;;;;;;;4.73;2.90;;;2.70;99.90;;;;;;4872554;29;20555;-79
2023/11/26 11:48:39;;;;;;;6.70;3.20;;;2.70;99.90;;;;;;4869840;29;20104;-79
2023/11/26 11:51:37;;;;;;;3.93;2.90;;;2.70;99.90;;;;;;4868000;29;20052;-77
2023/11/26 11:54:26;;;;;;;7.80;2.87;;;2.80;99.90;;;;;;4862295;29;20064;-82
2023/11/26 11:56:59;;;;;;;7.37;3.37;;;2.70;99.90;;;;;;4867118;29;20105;-81
2023/11/26 11:59:25;;;;;;;5.53;2.67;;;2.70;99.90;;;;;;4869965;29;20033;-81
2023/11/26 12:01:52;;;;;;;4.47;2.80;;;2.70;99.90;;;;;;4868471;29;20036;-84
2023/11/26 12:04:17;;;;;;;7.13;3.57;;;2.70;99.90;;;;;;4869863;29;20034;-84
2023/11/26 12:06:48;;;;;;;5.57;3.00;;;2.60;99.90;;;;;;4867824;29;20097;-82
2023/11/26 12:09:14;;;;;;;4.07;2.80;;;2.60;99.90;;;;;;4867373;29;20040;-83
2023/11/26 12:11:48;;;;;;;6.00;2.83;;;2.70;99.90;;;;;;4868434;29;20420;-82
2023/11/26 12:14:23;;;;;;;5.10;3.30;;;2.60;99.90;;;;;;4868429;29;20043;-82
2023/11/26 12:16:49;;;;;;;;;;;2.70;99.90;;;;;;4867605;29;20093;-82
2023/11/26 12:19:14;;;;;;;6.80;3.17;;;2.70;99.90;;;;;;4867654;29;20459;-82
2023/11/26 12:21:40;;;;;;;5.10;3.13;;;2.70;99.90;;;;;;4867006;29;20036;-83
2023/11/26 12:24:23;;;;;;;3.93;2.87;;;2.80;99.90;;;;;;4867873;29;21378;-83
2023/11/26 12:26:49;;;;;;;10.03;3.43;;;2.70;99.90;;;;;;4866950;29;20057;-83
2023/11/26 12:29:29;;;;;;;3.87;2.93;;;2.70;99.90;;;;;;4868952;29;20450;-82
2023/11/26 12:31:58;;;;;;;5.90;3.27;;;2.70;99.90;;;;;;4868309;29;20139;-81
2023/11/26 12:34:24;;;;;;;5.67;3.40;;;2.80;99.90;;;;;;4866187;29;20041;-82
2023/11/26 12:36:53;;;;;;;6.33;3.30;;;2.70;99.90;;;;;;4868291;29;20090;-82
2023/11/26 12:39:20;;;;;;;4.90;2.80;;;2.70;99.90;;;;;;4870729;29;20108;-81
2023/11/26 12:41:49;;;;;;;4.40;2.90;;;2.80;99.90;;;;;;4868842;29;20148;-81
2023/11/26 12:44:17;;;;;;;5.60;3.47;;;2.80;99.90;;;;;;4868268;29;21213;-83
2023/11/26 12:46:44;;;;;;;5.13;2.97;;;2.90;99.90;;;;;;4868019;29;20500;-83
2023/11/26 12:49:21;;;;;;;5.53;3.00;;;3.00;99.90;;;;;;4868287;29;20770;-82
2023/11/26 12:51:46;;;;;;;6.27;3.13;;;3.00;99.90;;;;;;4866753;29;20044;-82
2023/11/26 12:54:13;;;;;;;6.30;3.10;;;3.00;99.90;;;;;;4867424;29;20055;-84
2023/11/26 12:56:40;;;;;;;5.73;2.67;;;3.10;99.90;;;;;;4870236;29;20033;-83
2023/11/26 12:59:07;;;;;;;5.00;3.20;;;3.20;99.90;;;;;;4872952;29;20116;-83